100LL.CA
Aviation Fuel Pricing for Canadians
Please upgrade your browser - Tested with IE9, FireFox, Chrome, Safari

Fuel Airports Other Help
Prices Economy Info List METAR/TAF Kneeboard Help

Reference Airport: PENTICTON, BC
N 49 27 45  W 119 36 08
Provinces to show:

CYYF PENTICTON, BC
WEATHER
METARCYYF 230200Z 17006KT 15SM OVC086 07/02 A3031 RMK AC8 SLP276
TAFTAF CYYF 230040Z 2301/2313 16007KT P6SM FEW030 BKN070 FM230600 17008KT P6SM BKN030 RMK NXT FCST BY 230700Z
OTHER SITES

FlightAware

FltPlan

Google Maps

SkyVector
FUEL
FBO 100LL
member
100LL
public
JETA MOGAS
Executive Flight Center (2024-02-26)2.3132.3832.237
  Note: http://www.efcaviation.ca
Canada Flight Supplement - CYYF
(opens in new tab/window)


Please Send Updates!

Desktop Version ]  [ Mobile Version ]  [ Disclaimer ]